Time;durP1;ratioP1;P1;durP2;ratioP2;P2;SDS_P1;SDS_P2;PMS_P1;PMS_P2;Temp;Humidity;BMP_temperature;BMP_pressure;BME280_temperature;BME280_humidity;BME280_pressure;Samples;Min_cycle;Max_cycle;Signal;HPM_P1;HPM_P2
2021/12/08 00:00:21;;;;;;;71.70;28.00;;;;;;;-0.54;85.21;99974.75;103249;1312;22722;-58
2021/12/08 00:03:04;;;;;;;72.80;28.90;;;;;;;-0.53;85.17;99971.83;103254;1312;24234;-61
2021/12/08 00:05:33;;;;;;;71.40;27.60;;;;;;;-0.51;85.40;99972.67;104432;1312;22603;-61
2021/12/08 00:08:02;;;;;;;80.00;30.20;;;;;;;-0.48;85.31;99971.54;103515;1312;22640;-61
2021/12/08 00:13:13;;;;;;;73.10;27.80;;;;;;;-0.50;85.16;99979.23;103313;1312;22848;-60
2021/12/08 00:15:43;;;;;;;68.20;24.50;;;;;;;-0.51;85.28;99984.26;103389;1312;22600;-60
2021/12/08 00:18:14;;;;;;;67.60;24.70;;;;;;;-0.47;85.31;99983.19;103434;1309;23953;-60
2021/12/08 00:20:45;;;;;;;64.30;24.10;;;;;;;-0.46;85.26;99975.96;103439;1312;23571;-60
2021/12/08 00:23:16;;;;;;;59.70;23.00;;;;;;;-0.45;85.21;99967.95;103485;1313;24715;-58
2021/12/08 00:25:45;;;;;;;56.40;21.70;;;;;;;-0.44;85.20;99972.64;103384;1312;25455;-60
2021/12/08 00:28:14;;;;;;;55.70;22.40;;;;;;;-0.44;85.23;99965.20;103445;1312;24212;-59
2021/12/08 00:30:45;;;;;;;63.50;23.00;;;;;;;-0.43;85.26;99957.05;103489;1312;24517;-60
2021/12/08 00:33:14;;;;;;;62.40;23.80;;;;;;;-0.42;85.31;99956.02;103531;1312;24267;-57
2021/12/08 00:35:45;;;;;;;65.90;24.50;;;;;;;-0.40;85.25;99952.54;103528;1312;25271;-60
2021/12/08 00:38:13;;;;;;;74.70;30.20;;;;;;;-0.41;85.24;99943.77;103392;1312;23335;-58
2021/12/08 00:40:41;;;;;;;72.90;27.40;;;;;;;-0.41;85.23;99937.98;103378;1312;22926;-58
2021/12/08 00:43:10;;;;;;;60.50;23.60;;;;;;;-0.42;85.19;99946.70;103368;1315;23978;-58
2021/12/08 00:45:38;;;;;;;59.70;23.40;;;;;;;-0.42;85.18;99948.09;103440;1310;24961;-58
2021/12/08 00:48:06;;;;;;;53.70;21.80;;;;;;;-0.42;85.16;99941.21;103394;1314;26029;-60
2021/12/08 00:50:38;;;;;;;56.80;22.80;;;;;;;-0.44;85.08;99939.66;103314;1312;22669;-58
2021/12/08 00:53:07;;;;;;;63.90;23.80;;;;;;;-0.46;85.21;99943.55;103302;1312;23951;-60
2021/12/08 00:55:36;;;;;;;63.50;25.80;;;;;;;-0.47;85.16;99948.80;103469;1312;22697;-65
2021/12/08 00:58:05;;;;;;;66.60;26.50;;;;;;;-0.47;85.09;99950.90;104023;1315;22566;-62
2021/12/08 01:00:37;;;;;;;67.40;26.60;;;;;;;-0.48;85.20;99944.82;104179;1312;23409;-58
2021/12/08 01:03:06;;;;;;;65.80;26.60;;;;;;;-0.48;85.24;99946.22;103573;1312;25400;-59
2021/12/08 01:05:38;;;;;;;64.00;26.50;;;;;;;-0.48;85.36;99953.52;103329;1312;23013;-57
2021/12/08 01:08:08;;;;;;;67.00;27.00;;;;;;;-0.45;85.32;99954.33;103443;1312;24246;-57
2021/12/08 01:10:37;;;;;;;72.90;29.60;;;;;;;-0.45;85.27;99954.09;103440;1310;22678;-57
2021/12/08 01:13:09;;;;;;;71.10;27.30;;;;;;;-0.44;85.42;99955.65;103415;1312;22753;-57
2021/12/08 01:15:40;;;;;;;71.00;28.70;;;;;;;-0.43;85.27;99954.63;103451;1313;22573;-59
2021/12/08 01:18:09;;;;;;;68.00;27.70;;;;;;;-0.42;85.27;99950.53;103188;1312;25525;-57
2021/12/08 01:20:37;;;;;;;64.10;26.90;;;;;;;-0.40;85.30;99952.31;103313;1312;22729;-60
2021/12/08 01:23:06;;;;;;;69.10;26.90;;;;;;;-0.41;85.28;99948.64;103562;1312;22654;-60
2021/12/08 01:25:35;;;;;;;66.20;27.20;;;;;;;-0.43;85.22;99947.10;103509;1313;22578;-58
2021/12/08 01:28:04;;;;;;;67.50;26.20;;;;;;;-0.41;85.40;99950.36;103493;1312;22577;-62
2021/12/08 01:30:32;;;;;;;62.00;26.40;;;;;;;-0.43;85.28;99948.98;103392;1312;24699;-57
2021/12/08 01:33:00;;;;;;;72.50;29.00;;;;;;;-0.44;85.31;99953.23;103458;1312;22692;-60
2021/12/08 01:35:28;;;;;;;64.00;26.00;;;;;;;-0.45;85.45;99947.90;103335;1313;25536;-57
2021/12/08 01:37:57;;;;;;;72.90;29.30;;;;;;;-0.44;85.44;99939.73;103684;1312;26897;-57
2021/12/08 01:40:27;;;;;;;65.60;26.60;;;;;;;-0.43;85.33;99934.02;103411;1312;26746;-59
2021/12/08 01:42:58;;;;;;;66.10;25.80;;;;;;;-0.46;85.52;99933.35;103469;1313;24439;-58
2021/12/08 01:48:17;;;;;;;65.70;27.20;;;;;;;-0.46;85.59;99932.09;103321;1312;22587;-59
2021/12/08 01:50:48;;;;;;;71.90;27.00;;;;;;;-0.44;85.56;99925.80;103459;1312;26022;-58
2021/12/08 01:53:16;;;;;;;66.10;25.90;;;;;;;-0.45;85.58;99923.15;103495;1310;25483;-59
2021/12/08 01:55:44;;;;;;;63.70;27.80;;;;;;;-0.42;85.40;99920.76;103366;1310;26202;-58
2021/12/08 01:58:14;;;;;;;71.00;27.10;;;;;;;-0.42;85.53;99918.70;103439;1312;24324;-60
2021/12/08 02:00:47;;;;;;;73.10;28.50;;;;;;;-0.41;85.43;99917.38;103850;1313;25357;-59
2021/12/08 02:03:17;;;;;;;69.90;25.20;;;;;;;-0.41;85.38;99917.14;103528;1313;25478;-60
2021/12/08 02:05:46;;;;;;;69.70;26.10;;;;;;;-0.42;85.40;99909.23;103591;1312;22929;-58
2021/12/08 02:08:14;;;;;;;70.10;25.90;;;;;;;-0.42;85.42;99904.23;103705;1312;22669;-57
2021/12/08 02:10:43;;;;;;;61.60;25.30;;;;;;;-0.42;85.44;99905.56;103513;1312;22578;-61
2021/12/08 02:13:13;;;;;;;64.70;25.30;;;;;;;-0.41;85.46;99905.78;103425;1313;22616;-59
2021/12/08 02:15:41;;;;;;;70.20;25.90;;;;;;;-0.41;85.41;99893.39;103573;1312;22600;-60
2021/12/08 02:18:13;;;;;;;68.10;27.00;;;;;;;-0.42;85.59;99888.70;103465;1312;25389;-58
2021/12/08 02:20:44;;;;;;;70.30;29.40;;;;;;;-0.41;85.46;99893.86;103428;1312;22580;-59
2021/12/08 02:23:13;;;;;;;68.60;27.20;;;;;;;-0.39;85.52;99886.33;103594;1309;27834;-58
2021/12/08 02:25:41;;;;;;;70.10;26.30;;;;;;;-0.39;85.49;99879.17;103543;1310;23111;-59
2021/12/08 02:28:10;;;;;;;83.30;29.90;;;;;;;-0.39;85.54;99877.77;103218;1312;22640;-60
2021/12/08 02:30:44;;;;;;;64.60;25.10;;;;;;;-0.39;85.46;99875.11;103521;1310;25660;-61
2021/12/08 02:47:30;;;;;;;63.50;24.50;;;;;;;-0.40;85.50;99843.70;103514;1314;22741;-60
2021/12/08 02:49:59;;;;;;;64.80;24.30;;;;;;;-0.39;85.56;99841.66;103577;1313;25967;-57
2021/12/08 02:52:27;;;;;;;73.60;26.10;;;;;;;-0.37;85.44;99842.86;103495;1310;22515;-58
2021/12/08 02:55:01;;;;;;;69.70;27.30;;;;;;;-0.38;85.55;99839.11;103698;1312;22593;-59
2021/12/08 02:57:29;;;;;;;68.60;26.00;;;;;;;-0.39;85.42;99828.48;103705;1312;25598;-60
2021/12/08 02:59:57;;;;;;;72.60;30.10;;;;;;;-0.41;85.52;99827.73;103402;1313;25373;-57
2021/12/08 03:02:26;;;;;;;62.50;23.50;;;;;;;-0.41;85.55;99832.36;103895;1309;24776;-59
2021/12/08 03:04:55;;;;;;;73.20;27.00;;;;;;;-0.42;85.60;99830.41;103518;1313;24330;-59
2021/12/08 03:07:23;;;;;;;75.40;27.30;;;;;;;-0.42;85.61;99830.64;104004;1312;22627;-58
2021/12/08 03:09:51;;;;;;;69.60;25.90;;;;;;;-0.41;85.59;99827.42;103476;1313;25723;-60
2021/12/08 03:12:30;;;;;;;74.00;27.00;;;;;;;-0.40;85.51;99825.13;103451;1312;22637;-61
2021/12/08 03:14:58;;;;;;;64.30;22.70;;;;;;;-0.40;85.53;99820.83;103537;1309;22497;-59
2021/12/08 03:17:26;;;;;;;68.80;26.70;;;;;;;-0.41;85.55;99814.96;103834;1312;24712;-59
2021/12/08 03:19:54;;;;;;;69.00;25.30;;;;;;;-0.42;85.60;99811.70;103496;1313;22874;-57
2021/12/08 03:22:23;;;;;;;73.60;25.90;;;;;;;-0.44;85.52;99807.89;103344;1310;24270;-60
2021/12/08 03:24:53;;;;;;;66.20;26.60;;;;;;;-0.44;85.63;99802.23;103458;1312;24463;-57
2021/12/08 03:27:27;;;;;;;77.50;26.90;;;;;;;-0.45;85.66;99794.96;103494;1312;22618;-59
2021/12/08 03:29:58;;;;;;;71.00;26.90;;;;;;;-0.46;85.74;99796.08;103329;1312;25701;-60
2021/12/08 03:32:34;;;;;;;64.70;24.20;;;;;;;-0.44;85.87;99796.37;102924;1312;25342;-57
2021/12/08 03:35:06;;;;;;;69.70;25.60;;;;;;;-0.45;85.67;99791.52;103453;1312;22732;-57
2021/12/08 03:37:37;;;;;;;72.50;26.00;;;;;;;-0.44;85.66;99784.46;103527;1314;25389;-57
2021/12/08 03:40:09;;;;;;;72.20;24.90;;;;;;;-0.44;85.57;99777.09;103402;1312;25783;-57
2021/12/08 03:42:39;;;;;;;77.20;26.20;;;;;;;-0.46;85.49;99774.69;103518;1313;25631;-58
2021/12/08 03:45:11;;;;;;;68.00;23.70;;;;;;;-0.49;85.59;99773.58;104048;1312;25355;-57
2021/12/08 03:47:43;;;;;;;73.30;28.10;;;;;;;-0.51;85.61;99776.27;104056;1312;22702;-61
2021/12/08 03:50:16;;;;;;;70.10;25.40;;;;;;;-0.51;85.67;99771.31;103455;1312;22607;-58
2021/12/08 03:52:45;;;;;;;67.00;23.30;;;;;;;-0.49;85.77;99768.16;103403;1310;22742;-58
2021/12/08 03:55:16;;;;;;;70.30;25.30;;;;;;;-0.49;85.70;99761.83;103532;1312;24290;-57
2021/12/08 03:57:44;;;;;;;70.00;25.80;;;;;;;-0.51;85.60;99758.70;103419;1312;22578;-57
2021/12/08 04:00:20;;;;;;;61.90;22.80;;;;;;;-0.52;85.61;99750.75;103532;1312;25374;-64
2021/12/08 04:02:49;;;;;;;60.10;21.40;;;;;;;-0.52;85.69;99741.02;103437;1312;22671;-59
2021/12/08 04:05:19;;;;;;;62.80;24.50;;;;;;;-0.52;85.58;99740.25;104012;1312;22790;-58
2021/12/08 04:07:48;;;;;;;65.30;26.20;;;;;;;-0.51;85.68;99734.27;103440;1312;26153;-61
2021/12/08 04:10:19;;;;;;;66.00;23.20;;;;;;;-0.51;85.58;99733.09;103566;1312;24337;-59
2021/12/08 04:12:50;;;;;;;67.90;23.40;;;;;;;-0.53;85.52;99732.82;103573;1319;22641;-60
2021/12/08 04:15:21;;;;;;;67.50;23.80;;;;;;;-0.56;85.61;99735.98;103546;1312;22602;-58
2021/12/08 04:17:53;;;;;;;69.50;22.50;;;;;;;-0.56;85.79;99735.84;103615;1312;26105;-57
2021/12/08 04:20:27;;;;;;;65.20;25.30;;;;;;;-0.55;85.75;99732.14;103457;1312;25396;-62
2021/12/08 04:22:58;;;;;;;66.90;23.40;;;;;;;-0.54;85.83;99728.22;103533;1314;23126;-59
2021/12/08 04:25:30;;;;;;;70.50;27.80;;;;;;;-0.55;85.74;99727.67;103509;1312;22576;-58
2021/12/08 04:28:03;;;;;;;65.30;27.10;;;;;;;-0.54;85.87;99727.75;103494;1310;22589;-59
2021/12/08 04:30:35;;;;;;;61.00;25.70;;;;;;;-0.53;85.81;99724.90;103344;1316;22677;-57
2021/12/08 04:33:04;;;;;;;83.90;36.10;;;;;;;-0.54;85.66;99718.44;103573;1313;23214;-60
2021/12/08 04:35:32;;;;;;;86.90;36.60;;;;;;;-0.56;85.77;99717.74;103467;1316;22713;-60
2021/12/08 04:38:04;;;;;;;90.20;34.20;;;;;;;-0.57;85.82;99713.06;103247;1310;197863;-59
2021/12/08 04:40:44;;;;;;;91.70;32.20;;;;;;;-0.56;85.86;99713.52;103378;1313;25349;-57
2021/12/08 04:43:19;;;;;;;83.50;29.20;;;;;;;-0.54;86.02;99718.03;103494;1314;22631;-57
2021/12/08 04:46:02;;;;;;;77.40;27.00;;;;;;;-0.55;85.86;99710.84;103410;1318;25371;-59
2021/12/08 04:48:48;;;;;;;73.20;24.60;;;;;;;-0.56;85.91;99713.05;103312;1317;24286;-60
2021/12/08 05:03:00;;;;;;;64.90;21.90;;;;;;;-0.58;86.06;99718.72;102821;1315;29369;-57
2021/12/08 05:05:48;;;;;;;92.20;30.00;;;;;;;-0.59;86.07;99720.15;102771;1315;22574;-58
2021/12/08 05:08:21;;;;;;;70.50;25.20;;;;;;;-0.58;86.10;99720.98;102864;1315;24775;-57
2021/12/08 05:10:53;;;;;;;76.20;25.90;;;;;;;-0.60;86.06;99719.38;102922;1315;25443;-60
2021/12/08 05:13:22;;;;;;;74.30;25.70;;;;;;;-0.60;86.05;99720.48;102977;1315;26031;-62
2021/12/08 05:15:55;;;;;;;75.00;27.00;;;;;;;-0.59;86.08;99720.15;102861;1315;24248;-60
2021/12/08 05:18:27;;;;;;;75.90;27.20;;;;;;;-0.59;85.99;99718.11;102900;1315;23270;-58
2021/12/08 05:21:02;;;;;;;66.40;23.50;;;;;;;-0.59;86.07;99708.88;102761;1316;22580;-56
2021/12/08 05:23:35;;;;;;;71.10;26.90;;;;;;;-0.60;86.09;99714.36;102832;1319;26035;-59
2021/12/08 05:26:08;;;;;;;71.30;25.30;;;;;;;-0.60;85.89;99717.52;102948;1320;22677;-59
2021/12/08 05:28:38;;;;;;;76.70;26.20;;;;;;;-0.62;85.97;99722.95;102968;1315;25446;-61
2021/12/08 05:31:10;;;;;;;78.10;27.20;;;;;;;-0.63;86.13;99725.31;103129;1315;22656;-60
2021/12/08 05:33:39;;;;;;;67.90;23.80;;;;;;;-0.61;86.13;99734.05;103564;1318;22661;-60
2021/12/08 05:36:09;;;;;;;72.50;25.30;;;;;;;-0.62;86.16;99727.15;103609;1312;24234;-62
2021/12/08 05:38:37;;;;;;;76.90;28.20;;;;;;;-0.60;86.16;99731.21;103876;1312;24298;-62
2021/12/08 05:41:10;;;;;;;71.00;25.10;;;;;;;-0.60;86.11;99733.33;103304;1312;22567;-60
2021/12/08 05:43:39;;;;;;;78.80;27.20;;;;;;;-0.59;86.20;99731.27;103594;1313;22553;-58
2021/12/08 05:46:09;;;;;;;73.70;25.10;;;;;;;-0.60;86.02;99735.52;103617;1317;25357;-61
2021/12/08 05:48:38;;;;;;;63.90;21.70;;;;;;;-0.62;86.05;99729.75;103654;1313;22651;-57
2021/12/08 05:51:09;;;;;;;69.50;23.50;;;;;;;-0.63;86.03;99720.13;103281;1312;25326;-59
2021/12/08 05:53:41;;;;;;;61.40;20.80;;;;;;;-0.63;85.83;99724.92;103346;1313;22699;-59
2021/12/08 05:56:10;;;;;;;64.20;24.00;;;;;;;-0.65;85.77;99721.41;103532;1313;24266;-59
2021/12/08 05:58:40;;;;;;;66.80;24.40;;;;;;;-0.64;85.69;99723.59;103457;1310;22598;-61
2021/12/08 06:01:23;;;;;;;72.90;26.20;;;;;;;-0.62;85.95;99722.55;103320;1312;23135;-61
2021/12/08 06:03:53;;;;;;;74.50;26.90;;;;;;;-0.60;85.84;99721.51;103577;1316;25533;-58
2021/12/08 06:06:23;;;;;;;70.40;25.50;;;;;;;-0.59;85.86;99719.45;103337;1312;22585;-58
2021/12/08 06:08:52;;;;;;;69.60;25.60;;;;;;;-0.60;85.71;99713.51;103299;1312;24287;-58
2021/12/08 06:11:20;;;;;;;64.50;24.20;;;;;;;-0.59;85.77;99709.42;103310;1313;22753;-58
2021/12/08 06:13:49;;;;;;;66.00;22.90;;;;;;;-0.60;85.71;99708.33;103466;1312;25449;-58
2021/12/08 06:16:20;;;;;;;66.80;26.00;;;;;;;-0.58;85.60;99709.80;103356;1312;22585;-56
2021/12/08 06:18:51;;;;;;;57.80;20.10;;;;;;;-0.58;85.65;99708.38;103384;1313;22583;-58
2021/12/08 06:21:25;;;;;;;76.60;26.40;;;;;;;-0.60;85.36;99712.48;103438;1313;26682;-58
2021/12/08 06:23:54;;;;;;;69.20;25.30;;;;;;;-0.63;85.32;99712.52;103459;1312;24211;-58
2021/12/08 06:26:29;;;;;;;73.30;23.70;;;;;;;-0.65;85.42;99712.34;103431;1313;24266;-59
2021/12/08 06:29:00;;;;;;;58.90;22.00;;;;;;;-0.66;85.40;99707.04;103395;1312;26007;-60
2021/12/08 06:31:29;;;;;;;62.00;23.50;;;;;;;-0.68;85.41;99713.16;103513;1312;25563;-58
2021/12/08 06:33:57;;;;;;;69.60;26.80;;;;;;;-0.69;85.54;99714.83;104416;1312;22728;-60
2021/12/08 06:36:31;;;;;;;68.30;26.10;;;;;;;-0.68;85.59;99715.83;104139;1313;24205;-58
2021/12/08 06:39:00;;;;;;;65.30;26.10;;;;;;;-0.68;85.54;99716.86;103389;1312;25956;-59
2021/12/08 06:41:31;;;;;;;65.30;23.30;;;;;;;-0.69;85.38;99718.59;103462;1314;22738;-57
2021/12/08 06:44:05;;;;;;;67.60;25.90;;;;;;;-0.71;85.34;99722.23;103454;1312;25633;-57
2021/12/08 06:46:33;;;;;;;66.70;25.40;;;;;;;-0.74;85.23;99725.70;103387;1313;25275;-57
2021/12/08 06:49:06;;;;;;;68.00;25.80;;;;;;;-0.75;85.42;99732.00;103533;1312;24007;-58
2021/12/08 06:51:38;;;;;;;73.60;29.30;;;;;;;-0.75;85.39;99734.42;103542;1315;25114;-58
2021/12/08 06:54:11;;;;;;;69.90;25.90;;;;;;;-0.75;85.39;99732.08;103495;1312;22616;-57
2021/12/08 06:56:45;;;;;;;81.10;33.50;;;;;;;-0.77;85.33;99729.44;103464;1314;22598;-57
2021/12/08 06:59:19;;;;;;;91.40;36.20;;;;;;;-0.78;85.35;99732.19;104116;1312;25411;-58
2021/12/08 07:01:57;;;;;;;95.70;40.80;;;;;;;-0.79;85.28;99730.17;103509;1312;22664;-58
2021/12/08 07:04:31;;;;;;;84.10;34.90;;;;;;;-0.82;85.37;99729.12;103493;1317;25654;-59
2021/12/08 07:07:04;;;;;;;81.70;32.40;;;;;;;-0.83;85.38;99728.50;103502;1315;27714;-60
2021/12/08 07:09:39;;;;;;;90.50;36.20;;;;;;;-0.83;85.54;99724.75;103585;1312;22587;-56
2021/12/08 07:12:13;;;;;;;76.80;29.70;;;;;;;-0.82;85.52;99733.36;103515;1312;22673;-57
2021/12/08 07:14:45;;;;;;;73.90;26.70;;;;;;;-0.85;85.29;99734.96;103565;1313;24257;-58
2021/12/08 07:17:18;;;;;;;66.30;22.80;;;;;;;-0.88;85.14;99738.61;103760;1312;24326;-60
2021/12/08 07:19:51;;;;;;;59.10;21.20;;;;;;;-0.91;85.08;99735.91;106805;1316;22221;-60
2021/12/08 07:22:26;;;;;;;65.70;24.70;;;;;;;-0.95;84.92;99738.09;105256;1316;24351;-60
2021/12/08 07:25:00;;;;;;;61.10;22.10;;;;;;;-0.95;85.06;99737.69;103504;1314;24536;-58
2021/12/08 07:27:31;;;;;;;65.60;24.60;;;;;;;-0.95;84.97;99740.11;103713;1312;24362;-59
2021/12/08 07:30:05;;;;;;;64.20;24.20;;;;;;;-0.95;85.16;99736.98;103520;1314;24253;-57
2021/12/08 07:32:37;;;;;;;69.10;26.00;;;;;;;-0.95;84.92;99736.75;103598;1315;26071;-58
2021/12/08 07:35:10;;;;;;;61.00;24.20;;;;;;;-0.95;85.01;99739.48;103493;1314;25912;-58
2021/12/08 07:37:39;;;;;;;78.20;32.30;;;;;;;-0.95;85.03;99737.38;103476;1312;24433;-58
2021/12/08 07:40:12;;;;;;;66.60;27.30;;;;;;;-0.93;85.06;99735.00;103338;1317;24241;-58
2021/12/08 07:42:44;;;;;;;74.20;27.30;;;;;;;-0.94;85.06;99732.11;103502;1317;26001;-58
2021/12/08 07:45:23;;;;;;;58.20;22.40;;;;;;;-0.92;85.09;99733.74;103625;1313;24250;-59
2021/12/08 07:47:54;;;;;;;73.80;28.90;;;;;;;-0.93;84.88;99732.88;103575;1314;26761;-57
2021/12/08 07:50:28;;;;;;;63.00;26.60;;;;;;;-0.91;84.89;99728.33;103374;1312;22802;-60
2021/12/08 07:52:57;;;;;;;65.60;23.70;;;;;;;-0.91;84.88;99730.37;103553;1314;22589;-57
2021/12/08 07:55:29;;;;;;;67.50;26.00;;;;;;;-0.92;84.80;99727.33;103561;1313;25483;-58
2021/12/08 07:57:58;;;;;;;65.80;25.80;;;;;;;-0.92;84.99;99727.16;103591;1316;22681;-57
2021/12/08 08:00:33;;;;;;;61.80;25.30;;;;;;;-0.89;84.92;99728.52;103792;1312;22583;-58
2021/12/08 08:03:03;;;;;;;65.70;26.50;;;;;;;-0.88;84.87;99724.36;103559;1312;22910;-58
2021/12/08 08:05:32;;;;;;;70.80;26.90;;;;;;;-0.87;85.02;99723.33;103599;1312;25821;-60
2021/12/08 08:08:05;;;;;;;63.60;22.00;;;;;;;-0.87;84.84;99722.30;103402;1313;25546;-60
2021/12/08 08:10:40;;;;;;;65.50;25.70;;;;;;;-0.85;84.80;99718.98;103104;1313;26602;-60
2021/12/08 08:13:12;;;;;;;64.80;24.80;;;;;;;-0.83;84.77;99718.71;103493;1316;26742;-56
2021/12/08 08:15:45;;;;;;;77.60;30.70;;;;;;;-0.81;84.87;99717.75;103520;1318;25609;-56
2021/12/08 08:18:19;;;;;;;61.10;23.40;;;;;;;-0.79;84.83;99718.73;103552;1315;22935;-59
2021/12/08 08:20:50;;;;;;;61.90;24.40;;;;;;;-0.78;84.73;99714.10;103458;1313;22668;-60
2021/12/08 08:23:22;;;;;;;67.00;24.30;;;;;;;-0.77;84.79;99708.23;103565;1312;22682;-55
2021/12/08 08:25:54;;;;;;;60.80;23.20;;;;;;;-0.75;84.79;99708.03;103669;1312;22832;-54
2021/12/08 08:28:23;;;;;;;59.80;22.30;;;;;;;-0.73;84.78;99712.86;103699;1314;22633;-58
2021/12/08 08:30:55;;;;;;;68.80;22.90;;;;;;;-0.72;84.79;99712.06;103530;1316;22670;-58
2021/12/08 08:33:28;;;;;;;64.80;24.40;;;;;;;-0.69;84.61;99709.66;103592;1312;22651;-57
2021/12/08 08:36:04;;;;;;;59.80;22.20;;;;;;;-0.68;84.62;99710.27;103504;1317;22596;-57
2021/12/08 08:38:38;;;;;;;61.70;23.00;;;;;;;-0.67;84.52;99707.83;103492;1312;24180;-56
2021/12/08 08:41:11;;;;;;;58.80;21.50;;;;;;;-0.66;84.54;99710.40;103606;1313;22669;-56
2021/12/08 08:43:40;;;;;;;76.40;29.00;;;;;;;-0.65;84.48;99711.55;103645;1313;22916;-56
2021/12/08 08:46:12;;;;;;;77.50;31.50;;;;;;;-0.64;84.44;99719.30;103371;1314;22577;-58
2021/12/08 08:48:46;;;;;;;80.00;29.60;;;;;;;-0.64;84.40;99720.08;103577;1312;24218;-57
2021/12/08 08:51:23;;;;;;;82.30;33.80;;;;;;;-0.62;84.57;99723.42;103661;1318;22651;-58
2021/12/08 08:53:54;;;;;;;88.60;35.50;;;;;;;-0.62;84.38;99724.84;103609;1316;24371;-60
2021/12/08 08:56:27;;;;;;;89.90;35.90;;;;;;;-0.61;84.35;99725.82;103491;1313;25197;-57
2021/12/08 08:59:00;;;;;;;82.60;30.20;;;;;;;-0.60;84.32;99727.30;103554;1316;25065;-57
2021/12/08 09:01:33;;;;;;;91.00;37.30;;;;;;;-0.60;84.36;99721.58;103553;1313;22789;-58
2021/12/08 09:04:09;;;;;;;93.50;35.80;;;;;;;-0.59;84.32;99721.64;103560;1316;25666;-58
2021/12/08 09:06:43;;;;;;;92.90;32.60;;;;;;;-0.60;84.26;99726.29;103482;1318;22716;-55
2021/12/08 09:09:15;;;;;;;95.80;36.20;;;;;;;-0.60;84.39;99721.80;103472;1312;22585;-58
2021/12/08 09:11:48;;;;;;;86.30;29.20;;;;;;;-0.61;84.27;99727.92;103502;1312;22554;-57
2021/12/08 09:14:20;;;;;;;97.70;36.50;;;;;;;-0.62;84.10;99729.35;103560;1312;22580;-58
2021/12/08 09:16:55;;;;;;;106.80;41.00;;;;;;;-0.64;84.06;99723.99;103639;1312;22680;-58
2021/12/08 09:19:27;;;;;;;121.00;40.80;;;;;;;-0.65;84.22;99716.17;103507;1312;22592;-58
2021/12/08 09:22:01;;;;;;;80.10;31.60;;;;;;;-0.66;84.16;99712.73;104608;1315;22522;-57
2021/12/08 09:24:38;;;;;;;75.50;29.30;;;;;;;-0.65;84.20;99707.16;104300;1318;25504;-58
2021/12/08 09:27:10;;;;;;;81.50;31.40;;;;;;;-0.64;84.14;99703.95;103487;1312;22572;-57
2021/12/08 09:29:45;;;;;;;89.80;35.10;;;;;;;-0.64;84.25;99701.58;103639;1317;22782;-60
2021/12/08 09:32:19;;;;;;;65.10;25.40;;;;;;;-0.63;84.15;99695.23;103468;1313;22619;-58
2021/12/08 09:34:56;;;;;;;69.00;24.50;;;;;;;-0.63;84.08;99693.04;103604;1315;22577;-58
2021/12/08 09:37:31;;;;;;;81.40;30.80;;;;;;;-0.64;84.16;99688.05;103523;1315;24211;-59
2021/12/08 09:40:09;;;;;;;64.90;24.30;;;;;;;-0.63;84.34;99687.08;103678;1319;22610;-58
2021/12/08 09:42:41;;;;;;;64.50;24.70;;;;;;;-0.62;84.13;99678.30;103548;1319;24174;-58
2021/12/08 09:45:14;;;;;;;56.90;22.10;;;;;;;-0.60;84.20;99669.89;103660;1313;22672;-60
2021/12/08 09:47:43;;;;;;;64.90;24.30;;;;;;;-0.59;84.12;99660.08;103712;1313;22795;-58
2021/12/08 09:50:15;;;;;;;62.40;24.30;;;;;;;-0.58;84.19;99658.41;103727;1312;23507;-60
2021/12/08 09:52:46;;;;;;;62.90;22.90;;;;;;;-0.55;84.24;99654.53;103565;1313;22786;-60
2021/12/08 09:55:17;;;;;;;62.40;22.90;;;;;;;-0.53;84.10;99649.40;103558;1312;22606;-57
2021/12/08 09:57:47;;;;;;;55.60;21.60;;;;;;;-0.51;84.09;99644.66;103583;1319;25214;-60
2021/12/08 10:00:21;;;;;;;56.00;22.10;;;;;;;-0.50;84.06;99635.26;103565;1312;24235;-57
2021/12/08 10:02:54;;;;;;;56.20;21.30;;;;;;;-0.51;83.93;99630.09;103541;1312;24382;-57
2021/12/08 10:05:22;;;;;;;69.00;23.80;;;;;;;-0.52;83.82;99631.91;103667;1316;23012;-60
2021/12/08 10:07:51;;;;;;;69.60;25.00;;;;;;;-0.53;83.58;99628.23;103598;1314;22794;-55
2021/12/08 10:10:19;;;;;;;59.50;22.10;;;;;;;-0.56;83.65;99630.63;103716;1316;22590;-57
2021/12/08 10:12:48;;;;;;;64.30;23.90;;;;;;;-0.57;83.69;99629.80;103507;1316;22524;-58
2021/12/08 10:15:20;;;;;;;60.00;22.80;;;;;;;-0.59;83.75;99634.54;103585;1315;24056;-57
2021/12/08 10:17:49;;;;;;;67.40;23.90;;;;;;;-0.62;83.74;99632.70;103459;1313;24327;-58
2021/12/08 10:20:20;;;;;;;59.60;21.40;;;;;;;-0.64;83.66;99630.01;103681;1312;23178;-57
2021/12/08 10:23:07;;;;;;;55.30;19.80;;;;;;;-0.66;83.57;99623.88;103497;1314;23068;-59
2021/12/08 10:25:38;;;;;;;55.30;21.20;;;;;;;-0.72;83.34;99623.11;103551;1316;22796;-59
2021/12/08 10:28:10;;;;;;;60.10;19.90;;;;;;;-0.76;83.54;99620.18;103503;1313;22600;-57
2021/12/08 10:30:45;;;;;;;62.80;23.50;;;;;;;-0.75;83.56;99614.39;103570;1317;22616;-57
2021/12/08 10:33:47;;;;;;;65.60;24.20;;;;;;;-0.77;83.45;99618.48;103265;1313;25399;-56
2021/12/08 10:36:35;;;;;;;61.10;23.10;;;;;;;-0.78;83.61;99614.43;103600;1312;22603;-61
2021/12/08 10:39:08;;;;;;;59.20;20.90;;;;;;;-0.78;83.49;99612.79;103613;1315;22587;-61
2021/12/08 10:41:57;;;;;;;58.90;21.10;;;;;;;-0.81;83.37;99610.24;103438;1317;23120;-59
2021/12/08 10:44:28;;;;;;;56.50;20.50;;;;;;;-0.84;83.42;99613.04;103367;1313;22555;-58
2021/12/08 10:46:59;;;;;;;65.60;26.00;;;;;;;-0.86;83.55;99611.27;103508;1312;25493;-57
2021/12/08 10:55:03;;;;;;;53.20;18.60;;;;;;;-0.81;83.75;99622.14;103529;1314;22668;-54
2021/12/08 10:57:31;;;;;;;;;;;;;;;-0.82;83.41;99622.41;103688;1316;22783;-59
2021/12/08 11:00:05;;;;;;;56.00;19.90;;;;;;;-0.88;83.36;99623.68;103371;1315;22686;-59
2021/12/08 11:02:47;;;;;;;54.00;21.70;;;;;;;-0.90;83.44;99621.11;103861;1312;26243;-57
2021/12/08 11:05:38;;;;;;;54.20;21.80;;;;;;;-0.90;83.54;99623.17;103576;1319;22654;-56
2021/12/08 11:08:13;;;;;;;63.10;26.50;;;;;;;-0.91;83.67;99625.44;103434;1316;23107;-57
2021/12/08 11:10:45;;;;;;;70.20;27.20;;;;;;;-0.88;83.63;99630.48;103466;1314;22733;-57
2021/12/08 11:13:16;;;;;;;58.50;23.80;;;;;;;-0.87;83.60;99632.03;103445;1313;23164;-59
2021/12/08 11:15:45;;;;;;;57.40;22.80;;;;;;;-0.87;83.63;99631.80;103512;1317;22580;-56
2021/12/08 11:18:18;;;;;;;54.30;21.70;;;;;;;-0.88;83.64;99632.91;103619;1310;22584;-57
2021/12/08 11:20:50;;;;;;;55.00;21.00;;;;;;;-0.88;83.77;99631.42;103669;1312;22603;-57
2021/12/08 11:23:39;;;;;;;65.10;27.20;;;;;;;-0.88;83.82;99623.06;103555;1312;25599;-57
2021/12/08 11:26:15;;;;;;;75.50;30.10;;;;;;;-0.85;83.78;99619.16;103433;1313;22574;-56
2021/12/08 11:28:45;;;;;;;61.10;26.70;;;;;;;-0.82;83.97;99617.86;103615;1312;23646;-57
2021/12/08 11:31:16;;;;;;;63.30;29.70;;;;;;;-0.78;83.94;99610.98;103548;1314;22599;-58
2021/12/08 11:33:51;;;;;;;70.10;28.40;;;;;;;-0.77;83.77;99610.04;103601;1316;24243;-58
2021/12/08 11:36:21;;;;;;;67.20;24.90;;;;;;;-0.78;83.63;99606.14;103540;1315;25326;-58
2021/12/08 11:38:51;;;;;;;66.70;27.60;;;;;;;-0.79;83.78;99590.17;103542;1313;23050;-58
2021/12/08 11:41:35;;;;;;;63.60;23.10;;;;;;;-0.78;83.64;99582.87;103542;1318;22578;-60
2021/12/08 11:44:08;;;;;;;58.30;23.60;;;;;;;-0.75;83.58;99576.17;103608;1314;22610;-57
2021/12/08 11:46:48;;;;;;;62.70;24.00;;;;;;;-0.72;83.49;99581.21;103647;1314;22667;-56
2021/12/08 11:49:17;;;;;;;57.90;21.30;;;;;;;-0.70;83.51;99583.92;103520;1312;25530;-57
2021/12/08 11:51:59;;;;;;;64.30;24.30;;;;;;;-0.69;83.44;99575.36;103610;1319;25495;-57
2021/12/08 11:54:32;;;;;;;60.30;22.90;;;;;;;-0.69;83.43;99562.20;103730;1312;26858;-57
2021/12/08 11:57:18;;;;;;;65.20;24.70;;;;;;;-0.69;83.21;99564.15;103581;1313;25412;-57
2021/12/08 11:59:57;;;;;;;55.00;24.10;;;;;;;-0.68;83.50;99567.75;103569;1312;23287;-57
2021/12/08 12:02:29;;;;;;;58.40;22.10;;;;;;;-0.67;83.39;99569.60;103619;1316;25252;-60
2021/12/08 12:04:58;;;;;;;54.80;21.90;;;;;;;-0.67;83.39;99562.09;103779;1316;22615;-57
2021/12/08 12:07:26;;;;;;;52.70;20.90;;;;;;;-0.67;83.16;99550.65;104698;1315;22602;-60